sensor_id;sensor_type;location;lat;lon;timestamp;P1;durP1;ratioP1;P2;durP2;ratioP2
15799;SDS011;8002;51.196;7.010;2024-03-02T00:00:22;1.73;;;1.60;;
15799;SDS011;8002;51.196;7.010;2024-03-02T00:02:50;1.30;;;1.00;;
15799;SDS011;8002;51.196;7.010;2024-03-02T00:05:17;2.80;;;1.60;;
15799;SDS011;8002;51.196;7.010;2024-03-02T00:07:45;2.43;;;1.30;;
15799;SDS011;8002;51.196;7.010;2024-03-02T00:10:13;1.43;;;1.30;;
15799;SDS011;8002;51.196;7.010;2024-03-02T00:12:42;1.27;;;1.17;;
15799;SDS011;8002;51.196;7.010;2024-03-02T00:15:18;1.30;;;1.20;;
15799;SDS011;8002;51.196;7.010;2024-03-02T00:17:52;1.60;;;1.10;;
15799;SDS011;8002;51.196;7.010;2024-03-02T00:20:18;2.43;;;1.33;;
15799;SDS011;8002;51.196;7.010;2024-03-02T00:22:47;1.37;;;1.27;;
15799;SDS011;8002;51.196;7.010;2024-03-02T00:25:14;1.23;;;1.03;;
15799;SDS011;8002;51.196;7.010;2024-03-02T00:27:40;2.50;;;1.50;;
15799;SDS011;8002;51.196;7.010;2024-03-02T00:30:12;1.33;;;1.20;;
15799;SDS011;8002;51.196;7.010;2024-03-02T00:32:57;1.30;;;1.20;;
15799;SDS011;8002;51.196;7.010;2024-03-02T00:35:23;1.10;;;1.00;;
15799;SDS011;8002;51.196;7.010;2024-03-02T00:37:48;2.10;;;1.30;;
15799;SDS011;8002;51.196;7.010;2024-03-02T00:40:15;1.30;;;1.10;;
15799;SDS011;8002;51.196;7.010;2024-03-02T00:42:41;1.97;;;1.40;;
15799;SDS011;8002;51.196;7.010;2024-03-02T00:45:08;1.40;;;1.17;;
15799;SDS011;8002;51.196;7.010;2024-03-02T00:47:36;1.10;;;1.00;;
15799;SDS011;8002;51.196;7.010;2024-03-02T00:50:04;2.10;;;0.90;;
15799;SDS011;8002;51.196;7.010;2024-03-02T00:52:31;1.50;;;1.03;;
15799;SDS011;8002;51.196;7.010;2024-03-02T00:54:58;1.40;;;1.30;;
15799;SDS011;8002;51.196;7.010;2024-03-02T00:57:24;1.47;;;1.20;;
15799;SDS011;8002;51.196;7.010;2024-03-02T00:59:51;1.60;;;0.93;;
15799;SDS011;8002;51.196;7.010;2024-03-02T01:02:17;2.20;;;1.10;;
15799;SDS011;8002;51.196;7.010;2024-03-02T01:04:46;2.67;;;1.30;;
15799;SDS011;8002;51.196;7.010;2024-03-02T01:07:12;1.53;;;0.90;;
15799;SDS011;8002;51.196;7.010;2024-03-02T01:09:39;2.50;;;1.43;;
15799;SDS011;8002;51.196;7.010;2024-03-02T01:12:06;1.50;;;0.80;;
15799;SDS011;8002;51.196;7.010;2024-03-02T01:14:32;1.23;;;1.13;;
15799;SDS011;8002;51.196;7.010;2024-03-02T01:17:00;1.20;;;0.83;;
15799;SDS011;8002;51.196;7.010;2024-03-02T01:19:28;1.50;;;0.90;;
15799;SDS011;8002;51.196;7.010;2024-03-02T01:21:56;1.80;;;1.03;;
15799;SDS011;8002;51.196;7.010;2024-03-02T01:24:22;1.83;;;0.80;;
15799;SDS011;8002;51.196;7.010;2024-03-02T01:26:49;1.87;;;1.00;;
15799;SDS011;8002;51.196;7.010;2024-03-02T01:29:15;2.03;;;1.30;;
15799;SDS011;8002;51.196;7.010;2024-03-02T01:31:42;1.40;;;0.90;;
15799;SDS011;8002;51.196;7.010;2024-03-02T01:34:08;1.07;;;0.93;;
15799;SDS011;8002;51.196;7.010;2024-03-02T01:36:34;2.00;;;1.00;;
15799;SDS011;8002;51.196;7.010;2024-03-02T01:39:02;2.03;;;1.07;;
15799;SDS011;8002;51.196;7.010;2024-03-02T01:41:28;3.80;;;1.40;;
15799;SDS011;8002;51.196;7.010;2024-03-02T01:43:55;2.47;;;1.10;;
15799;SDS011;8002;51.196;7.010;2024-03-02T01:46:21;2.67;;;1.10;;
15799;SDS011;8002;51.196;7.010;2024-03-02T01:48:47;1.00;;;0.90;;
15799;SDS011;8002;51.196;7.010;2024-03-02T01:51:14;1.57;;;0.97;;
15799;SDS011;8002;51.196;7.010;2024-03-02T01:53:40;1.27;;;1.17;;
15799;SDS011;8002;51.196;7.010;2024-03-02T01:56:07;1.97;;;1.20;;
15799;SDS011;8002;51.196;7.010;2024-03-02T01:58:34;0.90;;;0.77;;
15799;SDS011;8002;51.196;7.010;2024-03-02T02:01:01;1.90;;;1.03;;
15799;SDS011;8002;51.196;7.010;2024-03-02T02:03:27;1.87;;;1.10;;
15799;SDS011;8002;51.196;7.010;2024-03-02T02:05:54;3.13;;;1.00;;
15799;SDS011;8002;51.196;7.010;2024-03-02T02:08:20;1.20;;;0.90;;
15799;SDS011;8002;51.196;7.010;2024-03-02T02:10:46;1.60;;;1.00;;
15799;SDS011;8002;51.196;7.010;2024-03-02T02:13:14;1.73;;;1.00;;
15799;SDS011;8002;51.196;7.010;2024-03-02T02:15:40;2.10;;;0.90;;
15799;SDS011;8002;51.196;7.010;2024-03-02T02:18:07;1.07;;;0.97;;
15799;SDS011;8002;51.196;7.010;2024-03-02T02:20:33;1.00;;;0.90;;
15799;SDS011;8002;51.196;7.010;2024-03-02T02:23:02;1.73;;;1.03;;
15799;SDS011;8002;51.196;7.010;2024-03-02T02:25:28;1.10;;;0.90;;
15799;SDS011;8002;51.196;7.010;2024-03-02T02:27:55;2.40;;;0.90;;
15799;SDS011;8002;51.196;7.010;2024-03-02T02:30:24;0.97;;;0.83;;
15799;SDS011;8002;51.196;7.010;2024-03-02T02:32:50;1.03;;;0.83;;
15799;SDS011;8002;51.196;7.010;2024-03-02T02:35:17;2.13;;;1.13;;
15799;SDS011;8002;51.196;7.010;2024-03-02T02:37:43;2.50;;;0.97;;
15799;SDS011;8002;51.196;7.010;2024-03-02T02:40:12;2.00;;;0.90;;
15799;SDS011;8002;51.196;7.010;2024-03-02T02:42:38;1.30;;;1.03;;
15799;SDS011;8002;51.196;7.010;2024-03-02T02:45:05;1.63;;;1.00;;
15799;SDS011;8002;51.196;7.010;2024-03-02T02:47:31;1.27;;;0.90;;
15799;SDS011;8002;51.196;7.010;2024-03-02T02:50:00;1.00;;;0.90;;
15799;SDS011;8002;51.196;7.010;2024-03-02T02:52:30;1.67;;;1.20;;
15799;SDS011;8002;51.196;7.010;2024-03-02T02:54:58;1.03;;;0.90;;
15799;SDS011;8002;51.196;7.010;2024-03-02T02:57:25;1.13;;;1.03;;
15799;SDS011;8002;51.196;7.010;2024-03-02T02:59:52;1.23;;;1.00;;
15799;SDS011;8002;51.196;7.010;2024-03-02T03:02:19;1.53;;;1.03;;
15799;SDS011;8002;51.196;7.010;2024-03-02T03:04:45;1.30;;;1.00;;
15799;SDS011;8002;51.196;7.010;2024-03-02T03:07:11;1.87;;;0.77;;
15799;SDS011;8002;51.196;7.010;2024-03-02T03:09:37;0.87;;;0.83;;
15799;SDS011;8002;51.196;7.010;2024-03-02T03:12:03;2.10;;;0.80;;
15799;SDS011;8002;51.196;7.010;2024-03-02T03:14:31;0.93;;;0.83;;
15799;SDS011;8002;51.196;7.010;2024-03-02T03:16:57;1.33;;;0.63;;
15799;SDS011;8002;51.196;7.010;2024-03-02T03:19:24;1.03;;;0.93;;
15799;SDS011;8002;51.196;7.010;2024-03-02T03:21:50;1.43;;;0.87;;
15799;SDS011;8002;51.196;7.010;2024-03-02T03:24:16;0.87;;;0.83;;
15799;SDS011;8002;51.196;7.010;2024-03-02T03:26:43;0.80;;;0.80;;
15799;SDS011;8002;51.196;7.010;2024-03-02T03:29:09;0.90;;;0.70;;
15799;SDS011;8002;51.196;7.010;2024-03-02T03:31:37;5.07;;;1.27;;
15799;SDS011;8002;51.196;7.010;2024-03-02T03:34:03;1.13;;;0.80;;
15799;SDS011;8002;51.196;7.010;2024-03-02T03:36:29;0.83;;;0.83;;
15799;SDS011;8002;51.196;7.010;2024-03-02T03:38:56;2.20;;;0.97;;
15799;SDS011;8002;51.196;7.010;2024-03-02T03:41:22;1.43;;;0.90;;
15799;SDS011;8002;51.196;7.010;2024-03-02T03:43:49;0.83;;;0.70;;
15799;SDS011;8002;51.196;7.010;2024-03-02T03:46:15;1.27;;;0.97;;
15799;SDS011;8002;51.196;7.010;2024-03-02T03:48:43;1.40;;;0.87;;
15799;SDS011;8002;51.196;7.010;2024-03-02T03:51:09;1.17;;;0.93;;
15799;SDS011;8002;51.196;7.010;2024-03-02T03:53:35;1.10;;;1.00;;
15799;SDS011;8002;51.196;7.010;2024-03-02T03:56:02;1.53;;;1.20;;
15799;SDS011;8002;51.196;7.010;2024-03-02T03:58:28;2.43;;;1.23;;
15799;SDS011;8002;51.196;7.010;2024-03-02T04:00:55;1.17;;;0.93;;
15799;SDS011;8002;51.196;7.010;2024-03-02T04:03:21;1.10;;;1.00;;
15799;SDS011;8002;51.196;7.010;2024-03-02T04:05:49;1.23;;;1.13;;
15799;SDS011;8002;51.196;7.010;2024-03-02T04:08:15;1.67;;;1.00;;
15799;SDS011;8002;51.196;7.010;2024-03-02T04:10:41;1.37;;;1.10;;
15799;SDS011;8002;51.196;7.010;2024-03-02T04:13:08;1.67;;;1.17;;
15799;SDS011;8002;51.196;7.010;2024-03-02T04:15:34;1.10;;;1.00;;
15799;SDS011;8002;51.196;7.010;2024-03-02T04:18:01;1.30;;;1.00;;
15799;SDS011;8002;51.196;7.010;2024-03-02T04:20:27;1.80;;;1.10;;
15799;SDS011;8002;51.196;7.010;2024-03-02T04:22:55;1.80;;;1.10;;
15799;SDS011;8002;51.196;7.010;2024-03-02T04:25:21;2.00;;;1.33;;
15799;SDS011;8002;51.196;7.010;2024-03-02T04:27:47;1.00;;;0.90;;
15799;SDS011;8002;51.196;7.010;2024-03-02T04:30:13;1.00;;;0.90;;
15799;SDS011;8002;51.196;7.010;2024-03-02T04:32:40;1.23;;;1.13;;
15799;SDS011;8002;51.196;7.010;2024-03-02T04:35:07;2.07;;;1.23;;
15799;SDS011;8002;51.196;7.010;2024-03-02T04:37:35;1.03;;;0.83;;
15799;SDS011;8002;51.196;7.010;2024-03-02T04:40:03;1.67;;;1.03;;
15799;SDS011;8002;51.196;7.010;2024-03-02T04:42:33;3.10;;;1.40;;
15799;SDS011;8002;51.196;7.010;2024-03-02T04:44:59;1.70;;;1.53;;
15799;SDS011;8002;51.196;7.010;2024-03-02T04:47:25;1.47;;;0.90;;
15799;SDS011;8002;51.196;7.010;2024-03-02T04:49:52;1.20;;;1.10;;
15799;SDS011;8002;51.196;7.010;2024-03-02T04:52:18;1.10;;;1.00;;
15799;SDS011;8002;51.196;7.010;2024-03-02T04:54:44;1.47;;;0.90;;
15799;SDS011;8002;51.196;7.010;2024-03-02T04:57:26;1.60;;;1.20;;
15799;SDS011;8002;51.196;7.010;2024-03-02T04:59:52;1.80;;;1.40;;
15799;SDS011;8002;51.196;7.010;2024-03-02T05:02:18;3.23;;;1.27;;
15799;SDS011;8002;51.196;7.010;2024-03-02T05:04:45;1.40;;;1.20;;
15799;SDS011;8002;51.196;7.010;2024-03-02T05:07:13;1.07;;;0.97;;
15799;SDS011;8002;51.196;7.010;2024-03-02T05:09:40;1.23;;;1.10;;
15799;SDS011;8002;51.196;7.010;2024-03-02T05:12:06;1.40;;;1.30;;
15799;SDS011;8002;51.196;7.010;2024-03-02T05:15:01;2.73;;;1.17;;
15799;SDS011;8002;51.196;7.010;2024-03-02T05:17:28;1.80;;;0.97;;
15799;SDS011;8002;51.196;7.010;2024-03-02T05:19:54;1.50;;;1.10;;
15799;SDS011;8002;51.196;7.010;2024-03-02T05:22:20;1.80;;;1.33;;
15799;SDS011;8002;51.196;7.010;2024-03-02T05:24:47;2.83;;;1.60;;
15799;SDS011;8002;51.196;7.010;2024-03-02T05:27:13;1.40;;;1.10;;
15799;SDS011;8002;51.196;7.010;2024-03-02T05:29:39;1.20;;;1.10;;
15799;SDS011;8002;51.196;7.010;2024-03-02T05:32:07;1.17;;;1.00;;
15799;SDS011;8002;51.196;7.010;2024-03-02T05:34:33;1.47;;;1.10;;
15799;SDS011;8002;51.196;7.010;2024-03-02T05:37:00;2.20;;;1.37;;
15799;SDS011;8002;51.196;7.010;2024-03-02T05:39:27;1.37;;;1.23;;
15799;SDS011;8002;51.196;7.010;2024-03-02T05:41:53;2.20;;;1.23;;
15799;SDS011;8002;51.196;7.010;2024-03-02T05:44:19;1.97;;;1.20;;
15799;SDS011;8002;51.196;7.010;2024-03-02T05:46:46;2.17;;;1.30;;
15799;SDS011;8002;51.196;7.010;2024-03-02T05:49:13;1.33;;;1.00;;
15799;SDS011;8002;51.196;7.010;2024-03-02T05:51:40;3.20;;;1.73;;
15799;SDS011;8002;51.196;7.010;2024-03-02T05:54:06;3.30;;;1.40;;
15799;SDS011;8002;51.196;7.010;2024-03-02T05:56:33;2.97;;;1.87;;
15799;SDS011;8002;51.196;7.010;2024-03-02T05:58:59;2.70;;;1.40;;
15799;SDS011;8002;51.196;7.010;2024-03-02T06:01:37;2.00;;;1.80;;
15799;SDS011;8002;51.196;7.010;2024-03-02T06:04:03;2.90;;;1.53;;
15799;SDS011;8002;51.196;7.010;2024-03-02T06:06:31;2.50;;;1.40;;
15799;SDS011;8002;51.196;7.010;2024-03-02T06:08:58;1.63;;;1.13;;
15799;SDS011;8002;51.196;7.010;2024-03-02T06:11:25;2.03;;;1.40;;
15799;SDS011;8002;51.196;7.010;2024-03-02T06:13:51;1.93;;;1.57;;
15799;SDS011;8002;51.196;7.010;2024-03-02T06:16:17;1.53;;;1.40;;
15799;SDS011;8002;51.196;7.010;2024-03-02T06:18:44;1.83;;;1.57;;
15799;SDS011;8002;51.196;7.010;2024-03-02T06:21:10;1.50;;;1.33;;
15799;SDS011;8002;51.196;7.010;2024-03-02T06:23:38;2.67;;;1.40;;
15799;SDS011;8002;51.196;7.010;2024-03-02T06:26:04;2.37;;;1.77;;
15799;SDS011;8002;51.196;7.010;2024-03-02T06:28:30;3.23;;;1.60;;
15799;SDS011;8002;51.196;7.010;2024-03-02T06:30:57;2.03;;;1.60;;
15799;SDS011;8002;51.196;7.010;2024-03-02T06:33:22;2.40;;;1.60;;
15799;SDS011;8002;51.196;7.010;2024-03-02T06:35:48;2.83;;;1.50;;
15799;SDS011;8002;51.196;7.010;2024-03-02T06:38:15;1.97;;;1.77;;
15799;SDS011;8002;51.196;7.010;2024-03-02T06:40:43;2.63;;;2.03;;
15799;SDS011;8002;51.196;7.010;2024-03-02T06:43:09;2.90;;;1.73;;
15799;SDS011;8002;51.196;7.010;2024-03-02T06:45:35;2.23;;;2.00;;
15799;SDS011;8002;51.196;7.010;2024-03-02T06:48:02;2.47;;;2.27;;
15799;SDS011;8002;51.196;7.010;2024-03-02T06:50:28;2.23;;;2.07;;
15799;SDS011;8002;51.196;7.010;2024-03-02T06:52:54;2.30;;;1.93;;
15799;SDS011;8002;51.196;7.010;2024-03-02T06:55:22;2.70;;;1.60;;
15799;SDS011;8002;51.196;7.010;2024-03-02T06:57:50;2.20;;;2.00;;
15799;SDS011;8002;51.196;7.010;2024-03-02T07:00:17;3.60;;;2.50;;
15799;SDS011;8002;51.196;7.010;2024-03-02T07:02:45;2.50;;;2.10;;
15799;SDS011;8002;51.196;7.010;2024-03-02T07:05:11;1.80;;;1.60;;
15799;SDS011;8002;51.196;7.010;2024-03-02T07:07:38;2.43;;;1.93;;
15799;SDS011;8002;51.196;7.010;2024-03-02T07:10:04;2.70;;;2.13;;
15799;SDS011;8002;51.196;7.010;2024-03-02T07:12:32;3.13;;;2.43;;
15799;SDS011;8002;51.196;7.010;2024-03-02T07:15:00;3.73;;;2.33;;
15799;SDS011;8002;51.196;7.010;2024-03-02T07:17:53;2.53;;;1.73;;
15799;SDS011;8002;51.196;7.010;2024-03-02T07:20:20;4.07;;;2.47;;
15799;SDS011;8002;51.196;7.010;2024-03-02T07:22:46;2.03;;;1.83;;
15799;SDS011;8002;51.196;7.010;2024-03-02T07:25:13;1.77;;;1.63;;
15799;SDS011;8002;51.196;7.010;2024-03-02T07:27:39;2.73;;;2.00;;
15799;SDS011;8002;51.196;7.010;2024-03-02T07:30:07;2.80;;;2.13;;
15799;SDS011;8002;51.196;7.010;2024-03-02T07:32:34;2.23;;;1.70;;
15799;SDS011;8002;51.196;7.010;2024-03-02T07:35:00;2.10;;;1.70;;
15799;SDS011;8002;51.196;7.010;2024-03-02T07:37:28;2.23;;;1.90;;
15799;SDS011;8002;51.196;7.010;2024-03-02T07:39:55;2.17;;;1.70;;
15799;SDS011;8002;51.196;7.010;2024-03-02T07:42:22;2.20;;;1.87;;
15799;SDS011;8002;51.196;7.010;2024-03-02T07:44:48;2.47;;;2.10;;
15799;SDS011;8002;51.196;7.010;2024-03-02T07:47:16;2.33;;;2.00;;
15799;SDS011;8002;51.196;7.010;2024-03-02T07:49:44;2.43;;;1.90;;
15799;SDS011;8002;51.196;7.010;2024-03-02T07:52:10;1.93;;;1.63;;
15799;SDS011;8002;51.196;7.010;2024-03-02T07:54:36;1.77;;;1.53;;
15799;SDS011;8002;51.196;7.010;2024-03-02T07:57:03;3.17;;;1.80;;
15799;SDS011;8002;51.196;7.010;2024-03-02T07:59:29;2.23;;;1.90;;
15799;SDS011;8002;51.196;7.010;2024-03-02T08:01:56;2.20;;;1.93;;
15799;SDS011;8002;51.196;7.010;2024-03-02T08:04:23;2.97;;;2.00;;
15799;SDS011;8002;51.196;7.010;2024-03-02T08:06:50;2.33;;;1.70;;
15799;SDS011;8002;51.196;7.010;2024-03-02T08:09:16;3.00;;;1.73;;
15799;SDS011;8002;51.196;7.010;2024-03-02T08:11:42;1.90;;;1.80;;
15799;SDS011;8002;51.196;7.010;2024-03-02T08:14:09;1.90;;;1.40;;
15799;SDS011;8002;51.196;7.010;2024-03-02T08:16:35;3.67;;;1.60;;
15799;SDS011;8002;51.196;7.010;2024-03-02T08:19:02;2.20;;;1.70;;
15799;SDS011;8002;51.196;7.010;2024-03-02T08:21:29;2.03;;;1.60;;
15799;SDS011;8002;51.196;7.010;2024-03-02T08:23:57;1.87;;;1.50;;
15799;SDS011;8002;51.196;7.010;2024-03-02T08:26:23;1.97;;;1.57;;
15799;SDS011;8002;51.196;7.010;2024-03-02T08:28:50;1.73;;;1.47;;
15799;SDS011;8002;51.196;7.010;2024-03-02T08:31:16;4.87;;;1.47;;
15799;SDS011;8002;51.196;7.010;2024-03-02T08:33:42;1.77;;;1.60;;
15799;SDS011;8002;51.196;7.010;2024-03-02T08:36:09;1.53;;;1.30;;
15799;SDS011;8002;51.196;7.010;2024-03-02T08:38:37;2.27;;;1.93;;
15799;SDS011;8002;51.196;7.010;2024-03-02T08:41:04;2.50;;;1.87;;
15799;SDS011;8002;51.196;7.010;2024-03-02T08:43:30;2.67;;;1.87;;
15799;SDS011;8002;51.196;7.010;2024-03-02T08:45:57;2.13;;;1.63;;
15799;SDS011;8002;51.196;7.010;2024-03-02T08:48:23;2.27;;;1.60;;
15799;SDS011;8002;51.196;7.010;2024-03-02T08:50:49;2.03;;;1.67;;
15799;SDS011;8002;51.196;7.010;2024-03-02T08:53:16;1.97;;;1.70;;
15799;SDS011;8002;51.196;7.010;2024-03-02T08:55:44;1.83;;;1.57;;
15799;SDS011;8002;51.196;7.010;2024-03-02T08:58:11;1.73;;;1.53;;
15799;SDS011;8002;51.196;7.010;2024-03-02T09:00:37;1.60;;;1.40;;
15799;SDS011;8002;51.196;7.010;2024-03-02T09:03:03;1.30;;;1.20;;
15799;SDS011;8002;51.196;7.010;2024-03-02T09:05:30;2.43;;;1.50;;
15799;SDS011;8002;51.196;7.010;2024-03-02T09:07:56;2.90;;;1.57;;
15799;SDS011;8002;51.196;7.010;2024-03-02T09:10:22;1.70;;;1.30;;
15799;SDS011;8002;51.196;7.010;2024-03-02T09:12:50;1.77;;;1.30;;
15799;SDS011;8002;51.196;7.010;2024-03-02T09:15:17;1.93;;;1.57;;
15799;SDS011;8002;51.196;7.010;2024-03-02T09:17:44;2.00;;;1.73;;
15799;SDS011;8002;51.196;7.010;2024-03-02T09:20:10;1.67;;;1.20;;
15799;SDS011;8002;51.196;7.010;2024-03-02T09:22:38;3.77;;;3.07;;
15799;SDS011;8002;51.196;7.010;2024-03-02T09:25:06;1.03;;;0.90;;
15799;SDS011;8002;51.196;7.010;2024-03-02T09:27:35;2.80;;;1.07;;
15799;SDS011;8002;51.196;7.010;2024-03-02T09:30:03;1.10;;;1.00;;
15799;SDS011;8002;51.196;7.010;2024-03-02T09:32:30;1.73;;;1.37;;
15799;SDS011;8002;51.196;7.010;2024-03-02T09:34:56;2.70;;;1.00;;
15799;SDS011;8002;51.196;7.010;2024-03-02T09:37:23;1.53;;;1.03;;
15799;SDS011;8002;51.196;7.010;2024-03-02T09:39:49;1.70;;;1.10;;
15799;SDS011;8002;51.196;7.010;2024-03-02T09:42:17;1.10;;;0.97;;
15799;SDS011;8002;51.196;7.010;2024-03-02T09:44:43;1.83;;;1.30;;
15799;SDS011;8002;51.196;7.010;2024-03-02T09:47:11;1.97;;;1.10;;
15799;SDS011;8002;51.196;7.010;2024-03-02T09:49:37;1.40;;;1.00;;
15799;SDS011;8002;51.196;7.010;2024-03-02T09:52:04;1.77;;;1.00;;
15799;SDS011;8002;51.196;7.010;2024-03-02T09:54:30;1.70;;;1.20;;
15799;SDS011;8002;51.196;7.010;2024-03-02T09:56:57;2.20;;;1.20;;
15799;SDS011;8002;51.196;7.010;2024-03-02T09:59:23;2.03;;;1.13;;
15799;SDS011;8002;51.196;7.010;2024-03-02T10:01:56;2.28;;;1.35;;
15799;SDS011;8002;51.196;7.010;2024-03-02T10:04:25;1.92;;;1.20;;
15799;SDS011;8002;51.196;7.010;2024-03-02T10:06:51;2.73;;;1.13;;
15799;SDS011;8002;51.196;7.010;2024-03-02T10:09:26;1.00;;;0.90;;
15799;SDS011;8002;51.196;7.010;2024-03-02T10:11:52;1.77;;;1.00;;
15799;SDS011;8002;51.196;7.010;2024-03-02T10:14:19;1.13;;;1.03;;
15799;SDS011;8002;51.196;7.010;2024-03-02T10:16:45;2.85;;;1.13;;
15799;SDS011;8002;51.196;7.010;2024-03-02T10:19:15;2.33;;;1.30;;
15799;SDS011;8002;51.196;7.010;2024-03-02T10:21:43;1.85;;;1.40;;
15799;SDS011;8002;51.196;7.010;2024-03-02T10:24:09;1.55;;;1.20;;
15799;SDS011;8002;51.196;7.010;2024-03-02T10:26:35;1.95;;;1.15;;
15799;SDS011;8002;51.196;7.010;2024-03-02T10:29:02;1.45;;;0.80;;
15799;SDS011;8002;51.196;7.010;2024-03-02T10:31:28;0.77;;;0.77;;
15799;SDS011;8002;51.196;7.010;2024-03-02T10:33:55;1.20;;;1.08;;
15799;SDS011;8002;51.196;7.010;2024-03-02T10:36:21;1.20;;;0.80;;
15799;SDS011;8002;51.196;7.010;2024-03-02T10:38:49;3.55;;;1.17;;
15799;SDS011;8002;51.196;7.010;2024-03-02T10:41:18;1.55;;;1.00;;
15799;SDS011;8002;51.196;7.010;2024-03-02T10:43:44;1.23;;;0.90;;
15799;SDS011;8002;51.196;7.010;2024-03-02T10:46:11;1.27;;;1.00;;
15799;SDS011;8002;51.196;7.010;2024-03-02T10:48:37;1.08;;;0.93;;
15799;SDS011;8002;51.196;7.010;2024-03-02T10:51:05;1.10;;;1.00;;
15799;SDS011;8002;51.196;7.010;2024-03-02T10:53:32;1.80;;;1.08;;
15799;SDS011;8002;51.196;7.010;2024-03-02T10:55:59;1.50;;;1.00;;
15799;SDS011;8002;51.196;7.010;2024-03-02T10:58:27;1.98;;;0.90;;
15799;SDS011;8002;51.196;7.010;2024-03-02T11:00:57;1.27;;;0.98;;
15799;SDS011;8002;51.196;7.010;2024-03-02T11:03:25;2.13;;;1.08;;
15799;SDS011;8002;51.196;7.010;2024-03-02T11:05:51;2.05;;;0.95;;
15799;SDS011;8002;51.196;7.010;2024-03-02T11:08:19;1.85;;;1.00;;
15799;SDS011;8002;51.196;7.010;2024-03-02T11:10:48;1.67;;;1.30;;
15799;SDS011;8002;51.196;7.010;2024-03-02T11:13:19;1.80;;;1.48;;
15799;SDS011;8002;51.196;7.010;2024-03-02T11:15:49;1.80;;;1.45;;
15799;SDS011;8002;51.196;7.010;2024-03-02T11:18:18;1.88;;;1.38;;
15799;SDS011;8002;51.196;7.010;2024-03-02T11:20:44;1.40;;;1.00;;
15799;SDS011;8002;51.196;7.010;2024-03-02T11:23:11;2.20;;;1.38;;
15799;SDS011;8002;51.196;7.010;2024-03-02T11:25:38;1.13;;;0.93;;
15799;SDS011;8002;51.196;7.010;2024-03-02T11:28:05;1.38;;;1.00;;
15799;SDS011;8002;51.196;7.010;2024-03-02T11:30:51;1.20;;;1.00;;
15799;SDS011;8002;51.196;7.010;2024-03-02T11:33:26;1.70;;;1.13;;
15799;SDS011;8002;51.196;7.010;2024-03-02T11:35:54;1.00;;;0.90;;
15799;SDS011;8002;51.196;7.010;2024-03-02T11:38:21;1.63;;;1.02;;
15799;SDS011;8002;51.196;7.010;2024-03-02T11:40:50;2.60;;;1.35;;
15799;SDS011;8002;51.196;7.010;2024-03-02T11:43:16;1.10;;;0.90;;
15799;SDS011;8002;51.196;7.010;2024-03-02T11:45:50;0.73;;;0.73;;
15799;SDS011;8002;51.196;7.010;2024-03-02T11:48:22;1.50;;;0.90;;
15799;SDS011;8002;51.196;7.010;2024-03-02T11:50:50;1.00;;;0.80;;
15799;SDS011;8002;51.196;7.010;2024-03-02T11:53:17;1.98;;;0.90;;
15799;SDS011;8002;51.196;7.010;2024-03-02T11:55:43;1.20;;;1.10;;
15799;SDS011;8002;51.196;7.010;2024-03-02T11:58:11;1.00;;;0.93;;
15799;SDS011;8002;51.196;7.010;2024-03-02T12:00:38;1.17;;;0.80;;
15799;SDS011;8002;51.196;7.010;2024-03-02T12:03:06;1.58;;;0.98;;
15799;SDS011;8002;51.196;7.010;2024-03-02T12:05:33;0.90;;;0.80;;
15799;SDS011;8002;51.196;7.010;2024-03-02T12:08:00;1.73;;;0.98;;
15799;SDS011;8002;51.196;7.010;2024-03-02T12:10:27;0.80;;;0.75;;
15799;SDS011;8002;51.196;7.010;2024-03-02T12:12:57;0.70;;;0.70;;
15799;SDS011;8002;51.196;7.010;2024-03-02T12:15:25;1.05;;;0.95;;
15799;SDS011;8002;51.196;7.010;2024-03-02T12:17:52;1.83;;;0.82;;
15799;SDS011;8002;51.196;7.010;2024-03-02T12:20:20;1.13;;;0.80;;
15799;SDS011;8002;51.196;7.010;2024-03-02T12:22:48;1.42;;;1.00;;
15799;SDS011;8002;51.196;7.010;2024-03-02T12:25:14;1.67;;;0.93;;
15799;SDS011;8002;51.196;7.010;2024-03-02T12:27:41;0.95;;;0.77;;
15799;SDS011;8002;51.196;7.010;2024-03-02T12:30:08;0.90;;;0.70;;
15799;SDS011;8002;51.196;7.010;2024-03-02T12:32:35;1.15;;;1.00;;
15799;SDS011;8002;51.196;7.010;2024-03-02T12:35:03;1.48;;;0.90;;
15799;SDS011;8002;51.196;7.010;2024-03-02T12:37:31;1.02;;;0.98;;
15799;SDS011;8002;51.196;7.010;2024-03-02T12:39:58;0.93;;;0.70;;
15799;SDS011;8002;51.196;7.010;2024-03-02T12:42:25;1.77;;;0.80;;
15799;SDS011;8002;51.196;7.010;2024-03-02T12:44:51;1.38;;;0.80;;
15799;SDS011;8002;51.196;7.010;2024-03-02T12:47:19;1.73;;;0.98;;
15799;SDS011;8002;51.196;7.010;2024-03-02T12:49:45;0.77;;;0.75;;
15799;SDS011;8002;51.196;7.010;2024-03-02T12:52:12;1.27;;;0.73;;
15799;SDS011;8002;51.196;7.010;2024-03-02T12:54:39;0.93;;;0.70;;
15799;SDS011;8002;51.196;7.010;2024-03-02T12:57:06;0.80;;;0.80;;
15799;SDS011;8002;51.196;7.010;2024-03-02T12:59:32;1.15;;;0.77;;
15799;SDS011;8002;51.196;7.010;2024-03-02T13:01:58;1.30;;;0.85;;
15799;SDS011;8002;51.196;7.010;2024-03-02T13:04:26;0.95;;;0.95;;
15799;SDS011;8002;51.196;7.010;2024-03-02T13:06:53;1.37;;;0.83;;
15799;SDS011;8002;51.196;7.010;2024-03-02T13:09:21;1.40;;;1.17;;
15799;SDS011;8002;51.196;7.010;2024-03-02T13:11:49;1.20;;;1.00;;
15799;SDS011;8002;51.196;7.010;2024-03-02T13:14:15;0.80;;;0.60;;
15799;SDS011;8002;51.196;7.010;2024-03-02T13:16:42;0.80;;;0.67;;
15799;SDS011;8002;51.196;7.010;2024-03-02T13:19:08;1.63;;;0.70;;
15799;SDS011;8002;51.196;7.010;2024-03-02T13:21:34;0.97;;;0.80;;
15799;SDS011;8002;51.196;7.010;2024-03-02T13:24:01;1.50;;;0.83;;
15799;SDS011;8002;51.196;7.010;2024-03-02T13:26:28;2.00;;;1.13;;
15799;SDS011;8002;51.196;7.010;2024-03-02T13:28:56;1.13;;;0.80;;
15799;SDS011;8002;51.196;7.010;2024-03-02T13:31:22;1.83;;;0.70;;
15799;SDS011;8002;51.196;7.010;2024-03-02T13:33:48;0.73;;;0.50;;
15799;SDS011;8002;51.196;7.010;2024-03-02T13:36:14;1.20;;;0.60;;
15799;SDS011;8002;51.196;7.010;2024-03-02T13:38:41;1.00;;;0.90;;
15799;SDS011;8002;51.196;7.010;2024-03-02T13:41:07;1.20;;;1.10;;
15799;SDS011;8002;51.196;7.010;2024-03-02T13:43:33;0.97;;;0.87;;
15799;SDS011;8002;51.196;7.010;2024-03-02T13:46:01;0.60;;;0.60;;
15799;SDS011;8002;51.196;7.010;2024-03-02T13:48:28;2.03;;;0.98;;
15799;SDS011;8002;51.196;7.010;2024-03-02T13:50:55;1.08;;;0.60;;
15799;SDS011;8002;51.196;7.010;2024-03-02T13:53:22;1.52;;;0.90;;
15799;SDS011;8002;51.196;7.010;2024-03-02T13:55:48;1.23;;;0.93;;
15799;SDS011;8002;51.196;7.010;2024-03-02T13:58:13;1.30;;;0.80;;
15799;SDS011;8002;51.196;7.010;2024-03-02T14:00:40;3.55;;;0.98;;
15799;SDS011;8002;51.196;7.010;2024-03-02T14:03:07;0.80;;;0.70;;
15799;SDS011;8002;51.196;7.010;2024-03-02T14:05:34;1.10;;;0.60;;
15799;SDS011;8002;51.196;7.010;2024-03-02T14:08:02;1.05;;;0.65;;
15799;SDS011;8002;51.196;7.010;2024-03-02T14:10:29;0.93;;;0.60;;
15799;SDS011;8002;51.196;7.010;2024-03-02T14:12:55;0.52;;;0.52;;
15799;SDS011;8002;51.196;7.010;2024-03-02T14:15:22;1.58;;;0.63;;
15799;SDS011;8002;51.196;7.010;2024-03-02T14:17:48;0.70;;;0.70;;
15799;SDS011;8002;51.196;7.010;2024-03-02T14:20:16;0.50;;;0.50;;
15799;SDS011;8002;51.196;7.010;2024-03-02T14:22:46;1.37;;;0.40;;
15799;SDS011;8002;51.196;7.010;2024-03-02T14:25:13;0.70;;;0.50;;
15799;SDS011;8002;51.196;7.010;2024-03-02T14:27:39;0.63;;;0.60;;
15799;SDS011;8002;51.196;7.010;2024-03-02T14:30:06;1.98;;;0.70;;
15799;SDS011;8002;51.196;7.010;2024-03-02T14:32:33;1.15;;;0.68;;
15799;SDS011;8002;51.196;7.010;2024-03-02T14:34:59;1.00;;;0.80;;
15799;SDS011;8002;51.196;7.010;2024-03-02T14:37:27;1.08;;;0.77;;
15799;SDS011;8002;51.196;7.010;2024-03-02T14:39:53;0.70;;;0.63;;
15799;SDS011;8002;51.196;7.010;2024-03-02T14:42:20;1.63;;;1.00;;
15799;SDS011;8002;51.196;7.010;2024-03-02T14:44:47;0.70;;;0.57;;
15799;SDS011;8002;51.196;7.010;2024-03-02T14:47:13;1.20;;;0.93;;
15799;SDS011;8002;51.196;7.010;2024-03-02T14:49:39;1.10;;;0.50;;
15799;SDS011;8002;51.196;7.010;2024-03-02T14:52:06;0.93;;;0.80;;
15799;SDS011;8002;51.196;7.010;2024-03-02T14:54:35;0.93;;;0.70;;
15799;SDS011;8002;51.196;7.010;2024-03-02T14:57:03;1.03;;;0.70;;
15799;SDS011;8002;51.196;7.010;2024-03-02T14:59:29;1.73;;;0.80;;